Time;durP1;ratioP1;P1;durP2;ratioP2;P2;SDS_P1;SDS_P2;PMS_P1;PMS_P2;Temp;Humidity;BMP_temperature;BMP_pressure;BME280_temperature;BME280_humidity;BME280_pressure;Samples;Min_cycle;Max_cycle;Signal;HPM_P1;HPM_P2
2022/02/01 00:06:17;;;;;;;23.92;2.42;;;3.40;99.90;;;;;;6742310;88;20207;-74
2022/02/01 00:36:45;;;;;;;17.70;2.37;;;3.00;99.90;;;;;;6741844;87;20180;-74
2022/02/01 00:46:46;;;;;;;12.77;2.50;;;2.90;99.90;;;;;;6748316;87;20585;-74
2022/02/01 00:56:46;;;;;;;24.48;2.03;;;2.60;99.90;;;;;;6741882;88;20245;-74
2022/02/01 01:06:47;;;;;;;13.38;1.70;;;2.50;99.90;;;;;;6742929;88;20285;-74
2022/02/01 01:57:57;;;;;;;15.32;1.73;;;2.70;99.90;;;;;;6744842;87;20199;-74
2022/02/01 02:07:58;;;;;;;12.40;1.47;;;2.70;99.90;;;;;;6744643;87;20809;-74
2022/02/01 02:18:01;;;;;;;15.48;1.60;;;2.70;99.90;;;;;;6743616;87;20554;-74
2022/02/01 02:28:02;;;;;;;12.32;1.60;;;2.70;99.90;;;;;;6744183;87;20188;-74
2022/02/01 02:38:08;;;;;;;12.07;1.48;;;2.80;99.90;;;;;;6752897;87;20227;-74
2022/02/01 02:48:12;;;;;;;14.67;2.17;;;2.70;99.90;;;;;;6738894;88;20176;-74
2022/02/01 02:58:13;;;;;;;16.62;2.17;;;2.70;99.90;;;;;;6743619;87;20196;-73
2022/02/01 03:08:13;;;;;;;10.75;1.60;;;2.70;99.90;;;;;;6738589;87;20604;-74
2022/02/01 03:28:52;;;;;;;11.00;1.58;;;2.80;99.90;;;;;;6709537;88;20197;-74
2022/02/01 03:38:53;;;;;;;16.85;1.98;;;2.90;99.90;;;;;;6745632;88;20172;-74
2022/02/01 03:48:53;;;;;;;8.52;1.40;;;2.90;99.90;;;;;;6739783;88;20336;-74
2022/02/01 03:58:54;;;;;;;11.50;1.40;;;2.90;99.90;;;;;;6746301;87;20642;-74
2022/02/01 04:08:54;;;;;;;14.50;1.98;;;3.00;99.90;;;;;;6742286;87;20185;-74
2022/02/01 04:18:55;;;;;;;15.93;2.15;;;3.00;99.90;;;;;;6746870;87;20201;-74
2022/02/01 04:28:56;;;;;;;11.65;2.05;;;3.00;99.90;;;;;;6746598;87;20713;-73
2022/02/01 04:38:57;;;;;;;16.35;2.03;;;3.00;99.90;;;;;;6744116;88;20552;-74
2022/02/01 04:49:00;;;;;;;8.93;2.22;;;3.10;99.90;;;;;;6744859;88;20316;-74
2022/02/01 04:59:00;;;;;;;14.15;2.50;;;3.20;99.90;;;;;;6736427;88;20218;-74
2022/02/01 05:09:01;;;;;;;10.77;1.90;;;3.20;99.90;;;;;;6746626;88;20359;-73
2022/02/01 05:19:04;;;;;;;11.05;2.12;;;3.30;99.90;;;;;;6749528;88;20695;-74
2022/02/01 05:29:05;;;;;;;14.45;2.17;;;3.30;99.90;;;;;;6743756;87;20322;-74
2022/02/01 05:39:15;;;;;;;13.80;2.47;;;3.50;99.90;;;;;;6748650;87;20232;-73
2022/02/01 05:49:17;;;;;;;10.07;2.33;;;3.50;99.90;;;;;;6740749;87;20547;-74
2022/02/01 05:59:18;;;;;;;13.00;2.35;;;3.60;99.90;;;;;;6736988;87;20317;-74
2022/02/01 06:09:18;;;;;;;12.95;2.10;;;3.60;99.90;;;;;;6742627;88;20232;-74
2022/02/01 06:19:19;;;;;;;11.10;2.55;;;3.70;99.90;;;;;;6726103;77;20699;-74
2022/02/01 06:29:19;;;;;;;15.23;2.50;;;3.40;99.90;;;;;;6696418;88;20203;-75
2022/02/01 06:39:20;;;;;;;6.78;2.20;;;3.40;99.90;;;;;;6694225;88;20758;-75
2022/02/01 06:49:21;;;;;;;10.50;3.00;;;3.40;99.90;;;;;;6691648;88;20746;-74
2022/02/01 06:59:22;;;;;;;8.63;2.27;;;3.50;99.90;;;;;;6691272;88;20218;-74
2022/02/01 07:09:22;;;;;;;8.32;2.08;;;3.60;99.90;;;;;;6691346;88;20570;-73
2022/02/01 07:19:24;;;;;;;11.20;2.40;;;3.70;99.90;;;;;;6694656;88;20256;-75
2022/02/01 07:29:25;;;;;;;8.27;2.25;;;3.80;99.90;;;;;;6699397;88;20897;-74
2022/02/01 07:39:26;;;;;;;10.43;1.60;;;3.80;99.90;;;;;;6689136;88;20271;-74
2022/02/01 07:49:26;;;;;;;4.68;1.50;;;3.90;99.90;;;;;;6690203;88;20197;-74
2022/02/01 07:59:27;;;;;;;7.90;1.70;;;3.90;99.90;;;;;;6697302;88;20190;-74
2022/02/01 08:09:35;;;;;;;7.82;1.70;;;4.10;99.90;;;;;;6695656;88;20982;-75
2022/02/01 08:19:55;;;;;;;7.22;1.60;;;4.20;99.90;;;;;;6706667;88;20188;-75
2022/02/01 08:29:56;;;;;;;10.18;1.98;;;4.20;99.90;;;;;;6705137;88;20219;-76
2022/02/01 08:39:57;;;;;;;9.00;2.33;;;4.40;99.90;;;;;;6698210;88;20217;-75
2022/02/01 08:49:57;;;;;;;8.90;2.65;;;4.40;99.90;;;;;;6705803;88;20231;-75
2022/02/01 09:00:05;;;;;;;6.53;2.90;;;4.30;99.90;;;;;;6692161;88;20675;-76
2022/02/01 09:10:06;;;;;;;9.40;2.55;;;4.20;99.90;;;;;;6678521;88;20485;-77
2022/02/01 09:20:07;;;;;;;5.78;2.80;;;4.50;99.90;;;;;;6682658;88;20254;-76
2022/02/01 09:30:08;;;;;;;4.68;2.20;;;4.70;99.90;;;;;;6704459;88;20274;-76
2022/02/01 09:40:09;;;;;;;5.28;2.00;;;4.80;99.90;;;;;;6692516;88;20192;-76
2022/02/01 09:50:10;;;;;;;3.67;1.60;;;5.00;99.90;;;;;;6699589;88;20234;-75
2022/02/01 10:00:15;;;;;;;3.58;1.30;;;5.10;99.90;;;;;;6700514;88;20182;-75
2022/02/01 10:10:17;;;;;;;2.65;1.02;;;5.30;99.90;;;;;;6704549;88;20198;-74
2022/02/01 10:20:17;;;;;;;2.78;1.10;;;5.40;99.90;;;;;;6700225;88;20360;-75
2022/02/01 10:30:20;;;;;;;1.30;0.70;;;5.60;99.90;;;;;;6706551;88;20221;-75
2022/02/01 10:40:21;;;;;;;2.17;0.77;;;5.90;99.90;;;;;;6693423;88;21169;-74
2022/02/01 10:50:27;;;;;;;2.28;0.50;;;6.00;99.90;;;;;;6697891;88;20244;-77
2022/02/01 11:00:27;;;;;;;3.93;0.43;;;6.20;99.90;;;;;;6698204;88;20236;-75
2022/02/01 11:10:28;;;;;;;1.05;0.32;;;6.40;99.90;;;;;;6696927;88;20182;-77
2022/02/01 11:20:30;;;;;;;0.75;0.30;;;6.60;99.90;;;;;;6700337;88;20686;-76
2022/02/01 11:30:40;;;;;;;1.00;0.30;;;6.80;99.90;;;;;;6695276;88;20215;-77
2022/02/01 11:40:46;;;;;;;1.02;0.30;;;7.10;99.90;;;;;;6680947;88;20330;-76
2022/02/01 11:50:56;;;;;;;0.57;0.20;;;6.90;99.90;;;;;;6694393;88;20167;-77
2022/02/01 12:00:57;;;;;;;1.30;0.30;;;7.00;99.90;;;;;;6700904;88;20178;-77
2022/02/01 12:11:01;;;;;;;1.17;0.30;;;7.00;99.90;;;;;;6701752;88;20964;-76
2022/02/01 12:21:05;;;;;;;0.73;0.30;;;7.10;99.90;;;;;;6736303;77;20235;-75
2022/02/01 12:31:09;;;;;;;1.15;0.30;;;6.90;99.90;;;;;;6729605;87;20791;-74
2022/02/01 12:41:19;;;;;;;3.95;0.40;;;6.80;99.90;;;;;;6725737;88;20287;-74
2022/02/01 12:51:19;;;;;;;0.50;0.20;;;6.70;99.90;;;;;;6726300;88;20295;-75
2022/02/01 13:01:33;;;;;;;0.68;0.30;;;6.50;99.90;;;;;;6726841;88;20842;-74
2022/02/01 13:21:54;;;;;;;0.70;0.20;;;6.50;99.90;;;;;;6728509;88;20678;-75
2022/02/01 13:31:54;;;;;;;0.47;0.20;;;6.50;99.90;;;;;;6729604;88;20256;-74
2022/02/01 13:42:04;;;;;;;1.75;0.25;;;6.50;99.90;;;;;;6728802;88;20266;-74
2022/02/01 13:52:06;;;;;;;0.47;0.20;;;6.50;99.90;;;;;;6726831;88;20197;-74
2022/02/01 14:02:10;;;;;;;2.60;0.43;;;6.60;99.90;;;;;;6722804;88;20210;-74
2022/02/01 14:23:17;;;;;;;;;;;6.90;99.90;;;;;;6727458;88;21093;-74
2022/02/01 14:53:17;;;;;;;1.20;0.50;;;7.40;99.90;;;;;;6724493;88;20261;-74
2022/02/01 15:13:38;;;;;;;1.42;0.65;;;7.50;99.90;;;;;;6724344;88;20233;-73
2022/02/01 15:23:38;;;;;;;1.40;0.68;;;7.50;99.90;;;;;;6716928;88;20214;-74
2022/02/01 15:33:39;;;;;;;2.28;1.10;;;7.50;99.90;;;;;;6713771;88;20227;-74
2022/02/01 16:04:20;;;;;;;8.85;4.50;;;7.60;99.90;;;;;;6718728;88;22136;-73
2022/02/01 16:14:20;;;;;;;12.05;6.28;;;7.70;99.90;;;;;;6718612;88;20197;-74
2022/02/01 16:24:21;;;;;;;16.30;7.12;;;7.80;99.90;;;;;;6714938;88;20778;-74
2022/02/01 16:34:23;;;;;;;15.17;8.17;;;7.90;99.90;;;;;;6717103;88;20216;-74
2022/02/01 16:44:24;;;;;;;15.52;8.63;;;7.90;99.90;;;;;;6714428;88;20499;-74
2022/02/01 16:54:38;;;;;;;13.62;7.85;;;8.00;99.90;;;;;;6710565;88;20699;-74
2022/02/01 17:04:39;;;;;;;18.12;9.38;;;8.10;99.90;;;;;;6724187;88;20660;-74
2022/02/01 17:24:55;;;;;;;21.10;9.50;;;7.90;99.90;;;;;;6714414;88;20330;-75
2022/02/01 17:34:56;;;;;;;20.15;8.15;;;7.90;99.90;;;;;;6722496;88;20270;-75
2022/02/01 17:44:56;;;;;;;19.10;7.47;;;8.10;99.90;;;;;;6726304;88;21163;-75
2022/02/01 17:54:57;;;;;;;20.37;7.80;;;8.20;99.90;;;;;;6727739;88;20943;-74
2022/02/01 18:04:57;;;;;;;16.85;7.65;;;8.20;99.90;;;;;;6731476;88;20185;-75
2022/02/01 18:14:58;;;;;;;19.25;6.85;;;8.30;99.90;;;;;;6731588;88;20190;-76
2022/02/01 18:25:00;;;;;;;18.37;8.03;;;8.30;99.90;;;;;;6737199;88;20207;-76
2022/02/01 18:35:00;;;;;;;14.50;8.20;;;8.10;99.90;;;;;;6734050;88;20505;-76
2022/02/01 18:45:02;;;;;;;14.68;7.35;;;8.10;99.90;;;;;;6729547;88;20745;-75
2022/02/01 19:05:43;;;;;;;12.43;5.95;;;8.30;99.90;;;;;;6729160;88;20673;-76
2022/02/01 19:15:49;;;;;;;13.50;3.30;;;8.30;99.90;;;;;;6730061;88;20216;-77
2022/02/01 19:25:50;;;;;;;14.63;4.17;;;8.20;99.90;;;;;;6734716;88;20288;-75
2022/02/01 19:35:55;;;;;;;11.02;3.53;;;8.20;99.90;;;;;;6732239;88;20208;-76
2022/02/01 19:45:56;;;;;;;11.60;2.72;;;8.20;99.90;;;;;;6731182;88;21065;-76
2022/02/01 19:55:57;;;;;;;12.73;2.92;;;8.20;99.90;;;;;;6729787;88;20288;-75
2022/02/01 20:06:00;;;;;;;13.02;2.67;;;8.10;99.90;;;;;;6745427;88;20228;-76
2022/02/01 20:16:01;;;;;;;15.95;2.47;;;8.10;99.90;;;;;;6727198;88;20246;-77
2022/02/01 20:26:04;;;;;;;13.50;2.60;;;8.20;99.90;;;;;;6735165;88;20203;-76
2022/02/01 20:36:04;;;;;;;10.63;2.10;;;8.20;99.90;;;;;;6715433;88;20198;-75
2022/02/01 20:46:05;;;;;;;12.48;2.67;;;7.90;99.90;;;;;;6713933;88;20248;-76
2022/02/01 20:56:06;;;;;;;11.75;2.12;;;8.00;99.90;;;;;;6713016;88;20194;-75
2022/02/01 21:06:06;;;;;;;19.15;2.40;;;8.20;99.90;;;;;;6716048;88;20253;-75
2022/02/01 21:16:11;;;;;;;13.02;2.25;;;8.10;99.90;;;;;;6713522;88;20212;-75
2022/02/01 21:26:12;;;;;;;18.87;2.97;;;7.60;99.90;;;;;;6720957;88;20237;-77
2022/02/01 21:36:12;;;;;;;12.98;2.10;;;7.60;99.90;;;;;;6728530;88;20200;-76
2022/02/01 21:46:13;;;;;;;12.00;1.67;;;7.80;99.90;;;;;;6736937;88;20222;-77
2022/02/01 21:56:15;;;;;;;13.70;2.70;;;7.80;99.90;;;;;;6728408;88;20206;-76
2022/02/01 22:06:16;;;;;;;15.13;2.45;;;7.60;99.90;;;;;;6731509;88;20208;-75
2022/02/01 22:16:20;;;;;;;17.25;2.65;;;7.70;99.90;;;;;;6734978;88;20358;-74
2022/02/01 22:26:21;;;;;;;19.12;2.50;;;7.80;99.90;;;;;;6739382;88;20170;-75
2022/02/01 22:36:21;;;;;;;14.68;2.55;;;7.80;99.90;;;;;;6733294;88;20243;-74
2022/02/01 22:46:24;;;;;;;18.40;3.03;;;7.80;99.90;;;;;;6729089;88;20209;-76
2022/02/01 22:56:25;;;;;;;18.30;2.40;;;7.80;99.90;;;;;;6735906;88;20205;-76
2022/02/01 23:06:25;;;;;;;15.38;3.08;;;7.90;99.90;;;;;;6739866;88;20280;-76
2022/02/01 23:26:47;;;;;;;11.73;2.37;;;8.10;99.90;;;;;;6730861;88;20204;-76
2022/02/01 23:37:31;;;;;;;16.95;2.22;;;7.90;99.90;;;;;;6732035;88;20208;-75
2022/02/01 23:57:52;;;;;;;13.40;2.60;;;7.50;99.90;;;;;;6735618;88;20774;-76
